createdAt,value
2022-10-03T00:01:17.863Z,101288.59
2022-10-03T00:06:44.197Z,101282.50
2022-10-03T00:12:04.387Z,101288.88
2022-10-03T00:17:15.621Z,101299.91
2022-10-03T00:22:39.076Z,101300.53
2022-10-03T00:27:48.512Z,101297.16
2022-10-03T00:32:59.061Z,101294.88
2022-10-03T00:38:00.516Z,101310.53
2022-10-03T00:43:32.851Z,101303.38
2022-10-03T00:49:11.974Z,101314.84
2022-10-03T00:54:31.824Z,101319.91
2022-10-03T00:59:48.101Z,101339.56
2022-10-03T01:05:45.299Z,101343.81
2022-10-03T01:10:58.746Z,101372.63
2022-10-03T01:16:00.267Z,101389.25
2022-10-03T01:21:46.679Z,101397.91
2022-10-03T01:26:59.708Z,101409.81
2022-10-03T01:32:13.216Z,101433.31
2022-10-03T01:37:32.221Z,101432.63
2022-10-03T01:42:37.557Z,101428.47
2022-10-03T01:47:47.411Z,101428.28
2022-10-03T01:52:55.145Z,101433.09
2022-10-03T01:58:21.920Z,101429.75
2022-10-03T02:03:32.515Z,101428.13
2022-10-03T02:08:33.990Z,101438.09
2022-10-03T02:13:36.186Z,101440.03
2022-10-03T02:18:49.720Z,101432.47
2022-10-03T02:24:17.943Z,101439.50
2022-10-03T02:29:22.471Z,101433.91
2022-10-03T02:34:56.923Z,101428.72
2022-10-03T02:40:40.218Z,101433.16
2022-10-03T02:46:13.226Z,101419.09
2022-10-03T02:51:42.431Z,101415.63
2022-10-03T02:57:00.767Z,101397.72
2022-10-03T03:02:36.523Z,101394.81
2022-10-03T03:07:50.025Z,101385.06
2022-10-03T03:13:26.214Z,101383.09
2022-10-03T03:18:39.665Z,101386.75
2022-10-03T03:24:14.691Z,101383.75
2022-10-03T03:29:35.127Z,101393.63
2022-10-03T03:34:50.883Z,101406.53
2022-10-03T03:40:19.765Z,101420.47
2022-10-03T03:45:49.626Z,101436.22
2022-10-03T03:50:57.405Z,101434.50
2022-10-03T03:56:19.879Z,101441.28
2022-10-03T04:01:49.820Z,101459.19
2022-10-03T04:06:56.300Z,101467.53
2022-10-03T04:12:29.669Z,101459.63
2022-10-03T04:18:01.795Z,101465.69
2022-10-03T04:23:33.549Z,101477.75
2022-10-03T04:28:53.388Z,101469.56
2022-10-03T04:34:10.050Z,101485.94
2022-10-03T04:39:47.611Z,101484.28
2022-10-03T04:45:24.131Z,101484.63
2022-10-03T04:50:25.584Z,101481.25
2022-10-03T04:55:48.563Z,101483.91
2022-10-03T05:01:21.059Z,101477.97
2022-10-03T05:06:46.612Z,101474.13
2022-10-03T05:12:06.395Z,101480.59
2022-10-03T05:17:42.393Z,101491.75
2022-10-03T05:23:17.629Z,101506.44
2022-10-03T05:28:34.496Z,101521.50
2022-10-03T05:33:49.709Z,101526.38
2022-10-03T05:39:25.781Z,101530.53
2022-10-03T05:44:51.732Z,101527.53
2022-10-03T05:50:18.536Z,101534.88
2022-10-03T05:55:42.523Z,101539.63
2022-10-03T06:01:11.424Z,101547.75
2022-10-03T06:06:47.439Z,101558.47
2022-10-03T06:12:10.281Z,101573.72
2022-10-03T06:17:21.036Z,101586.09
2022-10-03T06:22:34.821Z,101592.78
2022-10-03T06:28:14.507Z,101600.09
2022-10-03T06:33:53.569Z,101607.34
2022-10-03T06:39:22.586Z,101614.56
2022-10-03T06:44:55.153Z,101639.13
2022-10-03T06:50:12.463Z,101620.06
2022-10-03T06:55:20.038Z,101631.53
2022-10-03T07:00:53.470Z,101637.50
2022-10-03T07:06:12.140Z,101638.94
2022-10-03T07:11:56.059Z,101637.78
2022-10-03T07:17:11.073Z,101646.69
2022-10-03T07:22:40.212Z,101644.88
2022-10-03T07:27:51.634Z,101648.91
2022-10-03T07:33:24.894Z,101647.09
2022-10-03T07:39:03.429Z,101653.31
2022-10-03T07:44:23.175Z,101658.88
2022-10-03T07:49:48.908Z,101669.47
2022-10-03T07:55:20.711Z,101668.56
2022-10-03T08:00:33.879Z,101667.84
2022-10-03T08:05:54.577Z,101675.50
2022-10-03T08:11:34.653Z,101667.53
2022-10-03T08:16:39.032Z,101673.31
2022-10-03T08:22:02.095Z,101665.09
2022-10-03T08:27:28.484Z,101674.81
2022-10-03T08:32:57.198Z,101671.41
2022-10-03T08:38:36.680Z,101671.00
2022-10-03T08:44:13.213Z,101633.56
2022-10-03T08:49:52.399Z,101594.22
2022-10-03T08:55:20.226Z,101557.25
2022-10-03T09:00:39.899Z,101548.34
2022-10-03T09:06:24.437Z,101545.81
2022-10-03T09:11:28.993Z,101551.28
2022-10-03T09:16:43.058Z,101545.78
2022-10-03T09:22:11.994Z,101543.25
2022-10-03T09:27:47.539Z,101544.06
2022-10-03T09:32:49.020Z,101538.59
2022-10-03T09:38:09.059Z,101540.28
2022-10-03T09:43:29.179Z,101528.50
2022-10-03T09:48:38.091Z,101525.06
2022-10-03T09:54:23.678Z,101529.22
2022-10-03T09:59:51.078Z,101528.94
2022-10-03T10:04:56.414Z,101538.28
2022-10-03T10:10:17.394Z,101520.84
2022-10-03T10:15:31.693Z,101504.59
2022-10-03T10:21:10.323Z,101514.69
2022-10-03T10:27:02.634Z,101512.81
2022-10-03T10:32:25.444Z,101508.22
2022-10-03T10:37:58.018Z,101508.63
2022-10-03T10:43:21.333Z,101500.13
2022-10-03T10:49:07.355Z,101501.72
2022-10-03T10:54:39.019Z,101507.63
2022-10-03T10:59:59.108Z,101513.56
2022-10-03T11:05:19.628Z,101510.31
2022-10-03T11:10:39.256Z,101519.56
2022-10-03T11:16:01.810Z,101516.47
2022-10-03T11:21:21.497Z,101520.56
2022-10-03T11:27:01.833Z,101519.56
2022-10-03T11:32:39.665Z,101518.78
2022-10-03T11:38:08.473Z,101494.53
2022-10-03T11:43:44.301Z,101489.72
2022-10-03T11:49:05.435Z,101485.59
2022-10-03T11:54:30.674Z,101486.41
2022-10-03T11:59:41.670Z,101496.38
2022-10-03T12:04:54.747Z,101483.56
2022-10-03T12:10:16.863Z,101481.28
2022-10-03T12:15:24.093Z,101480.06
2022-10-03T12:20:52.634Z,101457.91
2022-10-03T12:25:57.069Z,101458.44
2022-10-03T12:31:19.307Z,101469.91
2022-10-03T12:36:48.174Z,101473.09
2022-10-03T12:42:14.758Z,101488.25
2022-10-03T12:47:50.938Z,101452.97
2022-10-03T12:52:57.696Z,101458.56
2022-10-03T12:58:40.357Z,101472.75
2022-10-03T13:03:52.120Z,101495.16
2022-10-03T13:09:12.141Z,101485.50
2022-10-03T13:14:23.707Z,101479.22
2022-10-03T13:19:38.841Z,101464.53
2022-10-03T13:24:50.689Z,101437.19
2022-10-03T13:30:05.475Z,101433.16
2022-10-03T13:35:59.157Z,101410.84
2022-10-03T13:41:27.867Z,101430.25
2022-10-03T13:46:42.142Z,101431.13
2022-10-03T13:52:15.518Z,101412.09
2022-10-03T13:57:23.188Z,101397.22
2022-10-03T14:02:42.391Z,101404.59
2022-10-03T14:07:53.953Z,101389.09
2022-10-03T14:13:10.649Z,101390.41
2022-10-03T14:18:27.104Z,101383.81
2022-10-03T14:23:42.072Z,101393.00
2022-10-03T14:28:53.282Z,101371.88
2022-10-03T14:34:32.253Z,101366.56
2022-10-03T14:40:20.892Z,101367.78
2022-10-03T14:45:29.299Z,101354.25
2022-10-03T14:50:32.476Z,101378.00
2022-10-03T14:56:03.802Z,101375.47
2022-10-03T15:01:19.003Z,101368.28
2022-10-03T15:06:46.985Z,101359.63
2022-10-03T15:12:03.088Z,101338.88
2022-10-03T15:17:28.444Z,101345.31
2022-10-03T15:22:35.682Z,101358.09
2022-10-03T15:27:41.809Z,101353.03
2022-10-03T15:32:47.241Z,101346.53
2022-10-03T15:37:49.911Z,101344.47
2022-10-03T15:43:02.998Z,101333.28
2022-10-03T15:48:12.113Z,101325.94
2022-10-03T15:53:37.256Z,101319.88
2022-10-03T15:58:47.159Z,101303.66
2022-10-03T16:03:57.530Z,101301.56
2022-10-03T16:09:01.419Z,101301.22
2022-10-03T16:14:26.447Z,101309.00
2022-10-03T16:19:33.640Z,101308.88
2022-10-03T16:25:01.586Z,101299.66
2022-10-03T16:30:11.922Z,101306.13
2022-10-03T16:35:32.882Z,101299.66
2022-10-03T16:40:37.861Z,101293.25
2022-10-03T16:45:44.651Z,101290.53
2022-10-03T16:50:52.859Z,101283.31
2022-10-03T16:56:17.408Z,101281.94
2022-10-03T17:01:28.441Z,101271.72
2022-10-03T17:06:34.169Z,101270.53
2022-10-03T17:11:38.409Z,101274.19
2022-10-03T17:16:49.454Z,101259.88
2022-10-03T17:21:54.763Z,101260.06
2022-10-03T17:27:01.130Z,101256.25
2022-10-03T17:32:18.472Z,101255.09
2022-10-03T17:37:51.015Z,101255.88
2022-10-03T17:43:14.318Z,101253.03
2022-10-03T17:48:22.819Z,101244.50
2022-10-03T17:53:30.596Z,101233.44
2022-10-03T17:58:33.190Z,101229.47
2022-10-03T18:03:47.428Z,101234.81
2022-10-03T18:08:50.991Z,101233.56
2022-10-03T18:14:00.358Z,101228.00
2022-10-03T18:19:13.711Z,101231.22
2022-10-03T18:24:36.454Z,101239.94
2022-10-03T18:29:46.892Z,101246.97
2022-10-03T18:35:12.915Z,101257.16
2022-10-03T18:40:33.521Z,101250.19
2022-10-03T18:45:44.597Z,101240.69
2022-10-03T18:51:03.507Z,101225.56
2022-10-03T18:56:11.115Z,101242.72
2022-10-03T19:01:31.717Z,101242.81
2022-10-03T19:06:38.915Z,101237.66
2022-10-03T19:11:50.087Z,101222.72
2022-10-03T19:17:10.260Z,101225.06
2022-10-03T19:22:15.160Z,101220.00
2022-10-03T19:27:25.090Z,101226.56
2022-10-03T19:32:45.803Z,101220.00
2022-10-03T19:38:15.376Z,101225.72
2022-10-03T19:43:41.663Z,101227.03
2022-10-03T19:48:51.640Z,101237.22
2022-10-03T19:53:54.029Z,101228.91
2022-10-03T19:59:04.829Z,101220.66
2022-10-03T20:04:06.801Z,101228.75
2022-10-03T20:09:26.450Z,101225.72
2022-10-03T20:14:34.955Z,101216.53
2022-10-03T20:19:39.504Z,101226.09
2022-10-03T20:24:45.476Z,101225.06
2022-10-03T20:30:13.238Z,101216.59
2022-10-03T20:35:49.839Z,101204.75
2022-10-03T20:41:00.087Z,101194.69
2022-10-03T20:46:22.078Z,101201.94
2022-10-03T20:51:23.978Z,101197.50
2022-10-03T20:56:37.869Z,101189.34
2022-10-03T21:01:41.276Z,101179.75
2022-10-03T21:07:12.378Z,101179.38
2022-10-03T21:12:24.600Z,101173.56
2022-10-03T21:17:27.128Z,101185.22
2022-10-03T21:22:30.049Z,101192.91
2022-10-03T21:27:33.720Z,101182.78
2022-10-03T21:32:53.542Z,101168.66
2022-10-03T21:38:05.766Z,101170.53
2022-10-03T21:43:29.057Z,101177.94
2022-10-03T21:48:45.784Z,101165.53
2022-10-03T21:53:56.059Z,101173.81
2022-10-03T21:59:16.529Z,101162.91
2022-10-03T22:04:34.053Z,101163.09
2022-10-03T22:09:35.809Z,101145.78
2022-10-03T22:15:03.394Z,101141.28
2022-10-03T22:20:22.888Z,101139.50
2022-10-03T22:25:24.346Z,101129.25
2022-10-03T22:30:26.236Z,101138.84
2022-10-03T22:35:42.855Z,101139.50
2022-10-03T22:40:47.554Z,101139.28
2022-10-03T22:45:52.846Z,101144.00
2022-10-03T22:50:56.456Z,101139.91
2022-10-03T22:55:59.793Z,101124.66
2022-10-03T23:01:02.851Z,101127.78
2022-10-03T23:06:25.149Z,101108.03
2022-10-03T23:11:31.731Z,101104.28
2022-10-03T23:16:46.199Z,101104.75
2022-10-03T23:21:50.511Z,101091.22
2022-10-03T23:27:19.907Z,101098.38
2022-10-03T23:32:47.277Z,101093.44
2022-10-03T23:37:49.240Z,101085.50
2022-10-03T23:43:03.194Z,101076.66
2022-10-03T23:48:14.133Z,101086.59
2022-10-03T23:53:20.048Z,101079.34
2022-10-03T23:58:31.572Z,101078.94
